Time;durP1;ratioP1;P1;durP2;ratioP2;P2;SDS_P1;SDS_P2;PMS_P1;PMS_P2;Temp;Humidity;BMP_temperature;BMP_pressure;BME280_temperature;BME280_humidity;BME280_pressure;Samples;Min_cycle;Max_cycle;Signal;HPM_P1;HPM_P2
2023/07/23 00:00:26;;;;;;;5.25;4.25;;;18.70;94.90;;;;;;5087149;28;20220;-79
2023/07/23 00:03:17;;;;;;;7.50;4.75;;;18.70;94.90;;;;;;5071974;28;20733;-79
2023/07/23 00:06:08;;;;;;;7.30;4.20;;;18.50;95.00;;;;;;5086255;28;20251;-77
2023/07/23 00:08:57;;;;;;;6.13;4.72;;;18.60;95.00;;;;;;5085956;28;20625;-77
2023/07/23 00:11:46;;;;;;;5.20;4.57;;;18.60;95.40;;;;;;5084916;28;20686;-76
2023/07/23 00:14:35;;;;;;;6.95;5.13;;;18.50;95.20;;;;;;5071990;28;20223;-78
2023/07/23 00:17:25;;;;;;;8.02;4.70;;;18.50;95.20;;;;;;5077708;28;20286;-78
2023/07/23 00:20:15;;;;;;;6.68;4.60;;;18.30;95.50;;;;;;5082304;28;20584;-76
2023/07/23 00:23:05;;;;;;;6.57;4.70;;;18.30;95.80;;;;;;5080306;28;20834;-79
2023/07/23 00:25:55;;;;;;;5.75;4.55;;;18.50;96.30;;;;;;5087501;28;20249;-78
2023/07/23 00:28:44;;;;;;;6.18;4.53;;;18.40;96.00;;;;;;5086483;28;20215;-78
2023/07/23 00:31:33;;;;;;;9.10;5.07;;;18.20;96.20;;;;;;5081694;28;20227;-78
2023/07/23 00:34:22;;;;;;;8.88;4.97;;;18.20;96.50;;;;;;5086432;28;20299;-79
2023/07/23 00:37:11;;;;;;;7.93;5.10;;;18.20;96.50;;;;;;5070474;28;20239;-79
2023/07/23 00:40:02;;;;;;;8.55;4.85;;;18.30;96.80;;;;;;5076871;28;20238;-78
2023/07/23 00:42:51;;;;;;;9.30;4.47;;;18.20;96.50;;;;;;5091607;28;20583;-79
2023/07/23 00:45:41;;;;;;;9.05;5.40;;;18.00;96.70;;;;;;5066996;28;20224;-80
2023/07/23 00:48:30;;;;;;;6.70;5.07;;;17.90;96.70;;;;;;5060341;28;20232;-79
2023/07/23 00:51:20;;;;;;;7.78;4.90;;;17.90;96.70;;;;;;5072475;28;20219;-79
2023/07/23 00:54:09;;;;;;;9.38;5.03;;;17.70;97.10;;;;;;5081561;28;20700;-80
2023/07/23 00:57:02;;;;;;;9.13;5.20;;;17.80;97.00;;;;;;5066874;28;20293;-80
2023/07/23 00:59:51;;;;;;;10.98;5.97;;;17.70;97.20;;;;;;5078003;28;20757;-79
2023/07/23 01:02:40;;;;;;;7.85;4.80;;;17.70;97.40;;;;;;5064522;28;20729;-80
2023/07/23 01:05:30;;;;;;;8.45;4.85;;;17.70;97.60;;;;;;5074289;28;20232;-78
2023/07/23 01:08:21;;;;;;;7.00;5.18;;;17.70;97.70;;;;;;5079285;28;20236;-78
2023/07/23 01:11:10;;;;;;;6.72;5.10;;;17.70;97.60;;;;;;5084714;28;20251;-83
2023/07/23 01:14:03;;;;;;;7.05;5.03;;;17.70;97.50;;;;;;5090856;28;20232;-79
2023/07/23 01:16:52;;;;;;;7.57;5.15;;;17.80;97.50;;;;;;5085823;28;20281;-80
2023/07/23 01:19:41;;;;;;;7.05;5.13;;;17.70;97.50;;;;;;5079570;28;20210;-82
2023/07/23 01:22:35;;;;;;;5.55;4.95;;;17.70;97.50;;;;;;5083870;28;20227;-81
2023/07/23 01:25:25;;;;;;;8.00;5.43;;;17.70;97.90;;;;;;5077174;28;20301;-79
2023/07/23 01:28:14;;;;;;;6.25;5.03;;;17.80;97.80;;;;;;5078527;28;20231;-79
2023/07/23 01:31:04;;;;;;;9.27;5.03;;;17.80;97.70;;;;;;5066736;28;21171;-79
2023/07/23 01:33:53;;;;;;;6.72;5.65;;;17.80;97.90;;;;;;5063577;28;20250;-79
2023/07/23 01:36:44;;;;;;;7.10;5.00;;;17.70;98.20;;;;;;5074812;28;20715;-77
2023/07/23 01:39:36;;;;;;;6.95;5.13;;;17.80;98.40;;;;;;5069494;28;20227;-76
2023/07/23 01:42:26;;;;;;;8.23;5.30;;;17.70;98.60;;;;;;5082310;28;20216;-76
2023/07/23 01:45:15;;;;;;;8.63;4.90;;;17.70;98.60;;;;;;5066212;28;20370;-77
2023/07/23 01:48:04;;;;;;;6.18;4.95;;;17.60;98.30;;;;;;5061714;28;20239;-77
2023/07/23 01:50:53;;;;;;;6.88;5.28;;;17.60;98.70;;;;;;5078926;28;20211;-77
2023/07/23 01:53:42;;;;;;;6.70;4.65;;;17.60;98.90;;;;;;5074136;28;20236;-76
2023/07/23 01:56:32;;;;;;;5.82;4.93;;;17.70;98.90;;;;;;5067623;28;20369;-78
2023/07/23 01:59:21;;;;;;;7.85;5.78;;;17.60;99.00;;;;;;5056221;28;20223;-77
2023/07/23 02:02:10;;;;;;;6.07;4.82;;;17.60;99.10;;;;;;5045932;28;20311;-77
2023/07/23 02:04:59;;;;;;;8.93;5.25;;;17.60;99.10;;;;;;5047660;28;20736;-83
2023/07/23 02:07:51;;;;;;;9.70;5.20;;;17.60;99.10;;;;;;5043433;28;20301;-87
2023/07/23 02:10:40;;;;;;;7.72;5.10;;;17.60;99.30;;;;;;5076670;28;20232;-87
2023/07/23 02:13:30;;;;;;;6.13;4.63;;;17.50;99.00;;;;;;5051333;28;20247;-85
2023/07/23 02:16:20;;;;;;;6.45;4.75;;;17.50;99.20;;;;;;5037933;28;20239;-86
2023/07/23 02:19:09;;;;;;;8.23;4.82;;;17.50;99.30;;;;;;5047759;28;20227;-82
2023/07/23 02:21:58;;;;;;;7.25;4.70;;;17.40;99.00;;;;;;5044033;28;20307;-84
2023/07/23 02:24:50;;;;;;;7.32;4.88;;;17.40;99.20;;;;;;5060956;28;20729;-82
2023/07/23 02:27:39;;;;;;;7.60;5.20;;;17.50;99.20;;;;;;5050977;28;22161;-82
2023/07/23 02:30:29;;;;;;;6.53;5.05;;;17.40;99.30;;;;;;5049670;28;20349;-82
2023/07/23 02:33:19;;;;;;;7.60;5.43;;;17.40;99.20;;;;;;5063342;28;20213;-81
2023/07/23 02:36:07;;;;;;;6.05;4.93;;;17.40;99.20;;;;;;5043412;28;20232;-82
2023/07/23 02:38:56;;;;;;;7.38;5.10;;;17.50;99.30;;;;;;5052214;28;20244;-83
2023/07/23 02:41:45;;;;;;;8.13;5.25;;;17.40;99.00;;;;;;5040823;28;20789;-82
2023/07/23 02:44:36;;;;;;;7.00;5.10;;;17.30;98.90;;;;;;5039667;28;20211;-77
2023/07/23 02:47:27;;;;;;;10.00;5.20;;;17.30;99.00;;;;;;5062992;28;20223;-78
2023/07/23 02:50:16;;;;;;;6.82;4.57;;;17.10;99.20;;;;;;5055006;28;20227;-78
2023/07/23 02:53:05;;;;;;;9.93;5.32;;;17.00;99.70;;;;;;5055154;28;20241;-79
2023/07/23 02:55:54;;;;;;;8.00;5.22;;;17.00;99.90;;;;;;5049879;28;20332;-79
2023/07/23 02:58:43;;;;;;;6.50;4.82;;;16.90;99.90;;;;;;5076349;28;20220;-79
2023/07/23 03:01:32;;;;;;;6.93;4.70;;;17.00;99.90;;;;;;5066111;28;20302;-79
2023/07/23 03:04:26;;;;;;;5.40;4.90;;;17.00;99.90;;;;;;5061619;28;20670;-80
2023/07/23 03:07:15;;;;;;;6.43;4.88;;;17.00;99.90;;;;;;5072240;28;20275;-80
2023/07/23 03:10:04;;;;;;;8.38;4.93;;;16.90;99.70;;;;;;5062069;28;20254;-80
2023/07/23 03:12:53;;;;;;;8.07;5.38;;;16.90;99.50;;;;;;5078409;28;20710;-79
2023/07/23 03:15:42;;;;;;;6.50;5.38;;;16.90;99.90;;;;;;5074813;28;20846;-77
2023/07/23 03:18:31;;;;;;;6.70;5.00;;;17.00;99.90;;;;;;5064309;28;20268;-79
2023/07/23 03:21:22;;;;;;;7.40;5.28;;;17.10;99.90;;;;;;5070873;28;20227;-79
2023/07/23 03:24:11;;;;;;;9.25;5.80;;;17.00;99.90;;;;;;5065652;28;20307;-78
2023/07/23 03:26:59;;;;;;;6.68;5.20;;;17.20;99.90;;;;;;5078718;28;20247;-79
2023/07/23 03:29:49;;;;;;;8.02;5.10;;;17.10;99.80;;;;;;5067136;28;20258;-79
2023/07/23 03:32:38;;;;;;;8.85;5.20;;;17.00;99.90;;;;;;5061275;28;20656;-79
2023/07/23 03:35:29;;;;;;;8.02;5.10;;;17.20;99.90;;;;;;5064800;28;20220;-79
2023/07/23 03:38:19;;;;;;;7.13;5.03;;;17.10;99.70;;;;;;5069766;28;20232;-81
2023/07/23 03:41:08;;;;;;;6.20;4.90;;;17.00;99.70;;;;;;5066876;28;20228;-81
2023/07/23 03:43:57;;;;;;;6.93;5.05;;;17.10;99.80;;;;;;5066352;28;20745;-81
2023/07/23 03:46:58;;;;;;;7.10;5.13;;;17.20;99.60;;;;;;5075100;28;20224;-80
2023/07/23 03:49:50;;;;;;;8.35;5.20;;;17.20;99.70;;;;;;5079852;28;20220;-79
2023/07/23 03:52:40;;;;;;;7.45;4.95;;;17.30;99.60;;;;;;5073815;28;20502;-78
2023/07/23 03:55:31;;;;;;;7.45;5.00;;;17.40;99.50;;;;;;5057652;28;20220;-79
2023/07/23 03:58:20;;;;;;;8.00;4.90;;;17.40;99.50;;;;;;5039500;28;20224;-82
2023/07/23 04:01:08;;;;;;;6.93;4.70;;;17.40;99.10;;;;;;5062087;28;20231;-82
2023/07/23 04:03:59;;;;;;;5.95;5.13;;;17.40;99.30;;;;;;5047410;28;20308;-79
2023/07/23 04:06:49;;;;;;;7.00;4.93;;;17.50;99.60;;;;;;5055492;28;20340;-81
2023/07/23 04:09:38;;;;;;;6.45;4.57;;;17.60;99.30;;;;;;5049136;28;20286;-80
2023/07/23 04:12:29;;;;;;;7.13;4.75;;;17.60;99.10;;;;;;5051729;28;20220;-81
2023/07/23 04:15:18;;;;;;;6.47;5.00;;;17.70;98.50;;;;;;5040247;28;20757;-81
2023/07/23 04:18:15;;;;;;;9.60;5.13;;;17.70;98.90;;;;;;5061160;28;20220;-82
2023/07/23 04:21:04;;;;;;;8.10;4.90;;;17.70;99.10;;;;;;5057718;28;20224;-83
2023/07/23 04:23:55;;;;;;;5.60;5.00;;;17.90;99.30;;;;;;5046621;28;20766;-83
2023/07/23 04:26:44;;;;;;;5.30;4.60;;;17.90;98.80;;;;;;5050710;28;20271;-82
2023/07/23 04:29:35;;;;;;;7.65;5.05;;;18.00;98.50;;;;;;5058114;28;20236;-79
2023/07/23 04:32:24;;;;;;;8.23;5.10;;;17.90;98.00;;;;;;5055709;28;20216;-78
2023/07/23 04:35:13;;;;;;;6.93;4.63;;;17.90;98.30;;;;;;5055860;28;20243;-78
2023/07/23 04:38:02;;;;;;;6.63;4.65;;;18.10;98.10;;;;;;5042713;28;20224;-77
2023/07/23 04:40:51;;;;;;;8.18;4.70;;;18.10;97.80;;;;;;5052050;28;20226;-77
2023/07/23 04:43:45;;;;;;;7.72;4.70;;;18.10;97.50;;;;;;5045508;28;20411;-81
2023/07/23 04:46:38;;;;;;;6.10;4.57;;;18.20;97.40;;;;;;5063837;28;20227;-83
2023/07/23 04:49:26;;;;;;;8.90;4.97;;;18.20;97.20;;;;;;5045058;28;20224;-81
2023/07/23 04:52:15;;;;;;;5.45;4.25;;;18.30;97.10;;;;;;5054999;28;20226;-81
2023/07/23 04:55:07;;;;;;;7.90;4.55;;;18.40;97.70;;;;;;5058924;28;20267;-81
2023/07/23 04:57:56;;;;;;;5.43;4.53;;;18.60;96.90;;;;;;5077567;28;20231;-81
2023/07/23 05:00:46;;;;;;;5.32;4.30;;;18.60;96.30;;;;;;5061992;28;20219;-81
2023/07/23 05:03:37;;;;;;;8.65;4.70;;;18.70;96.10;;;;;;5071603;28;20425;-83
2023/07/23 05:06:27;;;;;;;7.50;4.40;;;18.70;96.10;;;;;;5080134;28;20224;-80
2023/07/23 05:09:16;;;;;;;7.70;4.88;;;18.90;96.20;;;;;;5070505;28;20300;-79
2023/07/23 05:12:06;;;;;;;8.13;4.30;;;19.10;95.80;;;;;;5078021;28;20235;-79
2023/07/23 05:15:13;;;;;;;5.93;4.50;;;19.20;96.20;;;;;;5070493;28;20228;-80
2023/07/23 05:18:02;;;;;;;7.55;4.43;;;19.30;95.30;;;;;;5076653;28;20219;-80
2023/07/23 05:20:53;;;;;;;6.32;4.30;;;19.60;95.70;;;;;;5076562;28;20769;-80
2023/07/23 05:23:43;;;;;;;4.93;4.15;;;19.70;94.80;;;;;;5062820;28;20261;-77
2023/07/23 05:26:36;;;;;;;6.57;4.30;;;19.70;94.90;;;;;;5066139;28;20224;-78
2023/07/23 05:29:24;;;;;;;4.47;4.07;;;19.70;94.60;;;;;;5076009;28;20707;-78
2023/07/23 05:32:14;;;;;;;6.63;4.35;;;19.70;94.60;;;;;;5072883;28;20277;-78
2023/07/23 05:35:04;;;;;;;5.28;4.30;;;19.60;95.20;;;;;;5062028;28;20220;-78
2023/07/23 05:37:54;;;;;;;5.82;4.30;;;19.90;94.50;;;;;;5079318;28;20220;-78
2023/07/23 05:40:43;;;;;;;4.78;3.88;;;20.90;93.50;;;;;;5074422;28;20231;-78
2023/07/23 05:43:31;;;;;;;5.30;3.92;;;21.20;92.60;;;;;;5078671;28;20234;-78
2023/07/23 05:46:20;;;;;;;6.43;4.30;;;21.00;92.40;;;;;;5079713;28;20316;-78
2023/07/23 05:49:09;;;;;;;3.95;3.40;;;20.60;93.00;;;;;;5061673;28;20575;-79
2023/07/23 05:51:58;;;;;;;10.68;4.20;;;20.20;93.20;;;;;;5069864;28;20611;-80
2023/07/23 05:54:48;;;;;;;6.85;4.40;;;20.10;93.80;;;;;;5074609;28;20573;-79
2023/07/23 05:57:37;;;;;;;5.53;3.90;;;20.00;94.40;;;;;;5075162;28;20215;-81
2023/07/23 06:00:26;;;;;;;5.55;4.25;;;20.10;94.40;;;;;;5073021;28;20431;-79
2023/07/23 06:03:15;;;;;;;4.60;3.80;;;20.10;94.70;;;;;;5071752;28;20893;-79
2023/07/23 06:06:04;;;;;;;6.45;3.70;;;20.10;94.80;;;;;;5063990;28;20302;-79
2023/07/23 06:08:53;;;;;;;8.77;4.50;;;20.10;94.60;;;;;;5064389;28;20807;-82
2023/07/23 06:11:43;;;;;;;5.68;4.38;;;20.00;94.50;;;;;;5058528;28;20338;-79
2023/07/23 06:14:32;;;;;;;7.57;4.28;;;20.00;94.80;;;;;;5058817;28;20770;-78
2023/07/23 06:17:21;;;;;;;6.72;4.85;;;20.30;95.30;;;;;;5063889;28;20311;-77
2023/07/23 06:20:11;;;;;;;5.82;4.47;;;20.50;94.50;;;;;;5074270;28;20258;-77
2023/07/23 06:23:01;;;;;;;5.28;4.10;;;20.70;93.80;;;;;;5074801;28;20648;-81
2023/07/23 06:25:54;;;;;;;8.13;4.63;;;20.60;93.80;;;;;;5057188;28;20227;-80
2023/07/23 06:28:45;;;;;;;5.40;4.10;;;20.80;93.70;;;;;;5061775;28;20226;-78
2023/07/23 06:31:34;;;;;;;6.00;4.60;;;21.00;93.90;;;;;;5069470;28;20899;-78
2023/07/23 06:34:23;;;;;;;7.20;4.05;;;21.10;93.80;;;;;;5081393;28;20302;-78
2023/07/23 06:37:12;;;;;;;5.65;4.15;;;21.30;93.50;;;;;;5055445;28;20232;-77
2023/07/23 06:40:01;;;;;;;5.97;4.47;;;21.60;92.90;;;;;;5072441;28;20684;-81
2023/07/23 06:42:50;;;;;;;7.75;4.05;;;21.80;92.50;;;;;;5056931;28;20261;-82
2023/07/23 06:45:41;;;;;;;6.10;3.95;;;21.80;92.40;;;;;;5060367;28;20215;-81
2023/07/23 06:48:29;;;;;;;5.35;4.10;;;22.00;92.30;;;;;;5078515;28;20265;-83
2023/07/23 06:51:18;;;;;;;5.78;4.30;;;22.10;92.10;;;;;;5073281;28;20219;-83
2023/07/23 06:54:10;;;;;;;6.03;3.72;;;22.10;91.90;;;;;;5061767;28;20263;-85
2023/07/23 06:56:59;;;;;;;4.88;3.90;;;21.90;92.10;;;;;;5079399;28;20365;-86
2023/07/23 06:59:49;;;;;;;5.45;4.30;;;21.80;91.80;;;;;;5071029;28;20285;-86
2023/07/23 07:02:39;;;;;;;5.35;3.90;;;21.90;91.90;;;;;;5067973;28;20289;-86
2023/07/23 07:05:28;;;;;;;7.15;4.18;;;22.00;92.20;;;;;;5065157;28;20672;-78
2023/07/23 07:08:17;;;;;;;4.20;3.65;;;22.10;91.30;;;;;;5071228;28;20823;-77
2023/07/23 07:11:09;;;;;;;5.80;3.90;;;22.00;91.10;;;;;;5078857;28;20216;-79
2023/07/23 07:13:59;;;;;;;6.32;3.75;;;22.20;91.00;;;;;;5080022;28;20728;-77
2023/07/23 07:16:50;;;;;;;4.00;3.60;;;22.30;91.20;;;;;;5078307;28;20227;-91
2023/07/23 07:19:40;;;;;;;4.50;3.53;;;22.30;91.20;;;;;;5072764;28;20306;-84
2023/07/23 07:22:29;;;;;;;5.38;3.92;;;22.70;90.90;;;;;;5077033;28;20327;-79
2023/07/23 07:25:18;;;;;;;4.75;3.70;;;23.20;90.10;;;;;;5071841;28;20250;-77
2023/07/23 07:28:06;;;;;;;6.72;3.78;;;23.60;89.60;;;;;;5071058;28;20370;-79
2023/07/23 07:30:59;;;;;;;6.97;3.58;;;23.90;88.60;;;;;;5081616;28;20310;-85
2023/07/23 07:33:48;;;;;;;6.53;3.75;;;23.80;87.00;;;;;;5089405;28;20781;-84
2023/07/23 07:36:39;;;;;;;5.47;3.17;;;23.70;87.20;;;;;;5082109;28;20220;-83
2023/07/23 07:39:27;;;;;;;7.20;3.58;;;23.50;86.00;;;;;;5065766;28;20224;-79
2023/07/23 07:42:16;;;;;;;3.47;3.10;;;23.40;85.90;;;;;;5079421;28;20231;-78
2023/07/23 07:45:06;;;;;;;6.35;3.08;;;23.80;83.30;;;;;;5069562;28;20219;-81
2023/07/23 07:47:55;;;;;;;5.38;3.05;;;24.30;81.90;;;;;;5061582;28;20732;-84
2023/07/23 07:50:44;;;;;;;3.25;2.95;;;24.40;81.00;;;;;;5066402;28;20235;-85
2023/07/23 07:53:36;;;;;;;4.25;3.03;;;24.60;79.20;;;;;;5080749;28;20701;-82
2023/07/23 07:56:25;;;;;;;3.40;2.67;;;25.30;77.80;;;;;;5077282;28;20228;-79
2023/07/23 07:59:15;;;;;;;4.38;3.00;;;25.70;78.20;;;;;;5075386;28;20809;-77
2023/07/23 08:02:04;;;;;;;5.18;3.10;;;25.40;75.90;;;;;;5073474;28;20715;-75
2023/07/23 08:04:55;;;;;;;5.68;2.90;;;25.10;76.40;;;;;;5065644;28;20613;-80
2023/07/23 08:07:47;;;;;;;8.75;3.22;;;25.30;76.50;;;;;;5063046;28;20601;-77
2023/07/23 08:10:37;;;;;;;4.13;3.00;;;25.80;76.00;;;;;;5081158;28;20723;-82
2023/07/23 08:13:26;;;;;;;5.03;2.90;;;26.30;74.30;;;;;;5074628;28;20219;-80
2023/07/23 08:16:18;;;;;;;3.35;3.00;;;25.90;74.20;;;;;;5078728;28;20219;-74
2023/07/23 08:19:08;;;;;;;2.90;2.60;;;26.40;74.20;;;;;;5076578;28;20887;-81
2023/07/23 08:21:57;;;;;;;4.65;3.08;;;26.60;71.50;;;;;;5080536;28;20227;-82
2023/07/23 08:24:49;;;;;;;5.50;2.95;;;26.80;69.70;;;;;;5063331;28;20234;-84
2023/07/23 08:27:41;;;;;;;4.75;2.90;;;26.50;69.60;;;;;;5081029;28;20211;-84
2023/07/23 08:30:31;;;;;;;3.47;2.60;;;26.60;71.40;;;;;;5043454;28;20231;-86
2023/07/23 08:33:21;;;;;;;4.55;2.90;;;27.10;70.10;;;;;;5080495;28;20230;-86
2023/07/23 08:36:10;;;;;;;4.97;2.90;;;27.60;68.90;;;;;;5075875;28;21171;-85
2023/07/23 08:38:59;;;;;;;3.88;3.05;;;26.60;69.20;;;;;;5083624;28;20224;-86
2023/07/23 08:42:08;;;;;;;3.85;3.03;;;26.60;70.20;;;;;;5072550;28;20784;-86
2023/07/23 08:45:37;;;;;;;4.97;3.13;;;27.50;69.70;;;;;;5083408;28;20703;-87
2023/07/23 08:48:37;;;;;;;4.20;2.90;;;28.30;67.20;;;;;;5045510;28;20219;-86
2023/07/23 08:51:30;;;;;;;5.68;3.28;;;28.80;67.80;;;;;;5079347;28;20247;-85
2023/07/23 08:54:20;;;;;;;4.05;3.55;;;28.20;67.60;;;;;;5078796;28;20246;-86
2023/07/23 08:57:09;;;;;;;3.67;3.38;;;27.90;68.40;;;;;;5057612;28;20235;-87
2023/07/23 08:59:59;;;;;;;4.55;3.38;;;27.90;67.80;;;;;;5066464;28;20211;-87
2023/07/23 09:02:51;;;;;;;6.20;3.55;;;27.20;69.50;;;;;;5088151;28;20277;-86
2023/07/23 09:05:41;;;;;;;3.95;3.22;;;27.60;71.50;;;;;;5090579;28;20570;-85
2023/07/23 09:08:30;;;;;;;7.47;3.08;;;28.10;69.00;;;;;;5079204;28;20669;-86
2023/07/23 09:11:19;;;;;;;4.05;3.08;;;28.10;67.30;;;;;;5068748;28;20224;-86
2023/07/23 09:14:09;;;;;;;3.88;3.17;;;28.20;67.20;;;;;;5065775;28;20359;-86
2023/07/23 09:16:59;;;;;;;4.57;3.30;;;27.90;67.70;;;;;;5088347;28;20219;-84
2023/07/23 09:19:54;;;;;;;5.72;3.22;;;28.50;67.50;;;;;;5082089;28;20537;-85
2023/07/23 09:22:43;;;;;;;5.07;3.08;;;28.70;66.90;;;;;;5073959;28;20230;-86
2023/07/23 09:25:32;;;;;;;4.43;3.47;;;28.80;67.90;;;;;;5069317;28;20223;-84
2023/07/23 09:28:24;;;;;;;4.10;3.47;;;28.70;68.40;;;;;;5069583;28;20234;-85
2023/07/23 09:31:13;;;;;;;3.92;3.50;;;29.30;67.60;;;;;;5049150;28;20342;-85
2023/07/23 09:34:03;;;;;;;5.60;3.53;;;29.80;66.60;;;;;;5081335;28;20231;-86
2023/07/23 09:36:54;;;;;;;6.10;3.58;;;30.30;65.10;;;;;;5072525;28;20227;-84
2023/07/23 09:39:48;;;;;;;3.40;3.10;;;30.50;63.30;;;;;;5072959;28;20207;-85
2023/07/23 09:42:39;;;;;;;4.43;3.70;;;30.80;63.00;;;;;;5074420;28;20215;-87
2023/07/23 09:45:31;;;;;;;3.95;3.55;;;31.00;62.10;;;;;;5055106;28;20426;-85
2023/07/23 09:48:21;;;;;;;3.80;3.50;;;31.10;61.80;;;;;;5086652;28;20241;-86
2023/07/23 09:51:10;;;;;;;6.60;3.78;;;31.70;61.00;;;;;;5083990;28;20238;-86
2023/07/23 09:54:04;;;;;;;5.85;3.65;;;32.30;59.90;;;;;;5060022;28;20316;-85
2023/07/23 09:56:54;;;;;;;5.05;3.20;;;32.40;59.30;;;;;;5077779;28;20242;-85
2023/07/23 09:59:46;;;;;;;4.30;3.38;;;32.10;59.40;;;;;;5075730;28;20223;-83
2023/07/23 10:02:39;;;;;;;4.97;3.40;;;31.60;59.30;;;;;;5082949;28;20218;-87
2023/07/23 10:05:29;;;;;;;4.50;3.65;;;31.50;60.30;;;;;;5077829;28;20231;-86
2023/07/23 10:08:21;;;;;;;4.28;3.25;;;32.20;58.50;;;;;;5064685;28;20223;-87
2023/07/23 10:11:12;;;;;;;5.65;2.90;;;33.40;56.90;;;;;;5075460;28;20346;-86
2023/07/23 10:14:02;;;;;;;4.03;3.67;;;34.30;55.30;;;;;;5084565;28;20222;-87
2023/07/23 10:16:54;;;;;;;4.15;3.38;;;36.10;56.10;;;;;;5077997;28;20232;-85
2023/07/23 10:19:44;;;;;;;4.18;3.33;;;35.50;53.30;;;;;;5074276;28;20306;-86
2023/07/23 10:22:34;;;;;;;4.43;3.28;;;34.00;55.40;;;;;;5079607;28;20733;-85
2023/07/23 10:25:30;;;;;;;4.78;3.45;;;32.90;55.40;;;;;;5078775;28;20589;-86
2023/07/23 10:28:29;;;;;;;4.00;3.20;;;31.80;56.50;;;;;;5064352;28;20237;-86
2023/07/23 10:31:24;;;;;;;3.55;3.25;;;31.00;58.10;;;;;;5076945;28;20298;-85
2023/07/23 10:34:42;;;;;;;5.10;3.60;;;30.90;58.50;;;;;;5052896;28;20228;-86
2023/07/23 10:37:30;;;;;;;4.78;3.22;;;30.90;59.80;;;;;;5073258;28;20380;-87
2023/07/23 10:40:45;;;;;;;6.93;3.33;;;33.70;59.00;;;;;;5079810;28;20626;-88
2023/07/23 10:43:45;;;;;;;6.32;3.50;;;34.30;56.50;;;;;;5074795;28;20310;-86
2023/07/23 10:46:37;;;;;;;3.67;3.33;;;33.40;55.90;;;;;;5070637;28;20230;-87
2023/07/23 10:49:29;;;;;;;4.40;3.30;;;32.00;57.20;;;;;;5081802;28;20219;-91
2023/07/23 10:52:18;;;;;;;6.32;3.40;;;32.40;59.60;;;;;;5084432;28;20230;-91
2023/07/23 10:55:09;;;;;;;5.35;3.60;;;31.70;58.90;;;;;;5070760;28;20341;-89
2023/07/23 10:58:02;;;;;;;4.63;3.50;;;30.70;58.70;;;;;;5069141;28;20313;-92
2023/07/23 11:00:56;;;;;;;4.18;3.40;;;29.70;59.40;;;;;;5069130;28;20223;-93
2023/07/23 11:03:45;;;;;;;5.45;3.90;;;29.00;60.90;;;;;;5083510;28;20230;-92
2023/07/23 11:06:34;;;;;;;4.70;3.60;;;28.80;62.90;;;;;;5074621;28;20586;-92
2023/07/23 11:09:27;;;;;;;4.47;3.40;;;28.40;62.80;;;;;;5087287;28;20265;-90
2023/07/23 11:12:17;;;;;;;3.90;3.35;;;28.10;64.70;;;;;;5078041;28;20231;-92
2023/07/23 11:15:14;;;;;;;5.43;3.97;;;27.80;65.20;;;;;;5091018;28;20224;-89
2023/07/23 11:18:05;;;;;;;8.20;3.53;;;27.50;64.40;;;;;;5091538;28;20233;-91
2023/07/23 11:20:56;;;;;;;5.03;3.58;;;27.60;64.00;;;;;;5087916;28;20219;-88
2023/07/23 11:23:45;;;;;;;7.47;3.42;;;27.60;63.40;;;;;;5062803;28;20227;-85
2023/07/23 11:26:36;;;;;;;4.97;3.42;;;27.40;64.10;;;;;;5071391;28;20250;-85
2023/07/23 11:29:25;;;;;;;7.57;3.10;;;27.10;64.50;;;;;;5057735;28;20223;-84
2023/07/23 11:32:17;;;;;;;6.88;3.60;;;26.90;65.30;;;;;;5068094;28;20777;-85
2023/07/23 11:35:09;;;;;;;5.03;3.50;;;26.60;66.10;;;;;;5077108;28;20234;-85
2023/07/23 11:38:02;;;;;;;4.05;3.38;;;26.50;66.90;;;;;;5080363;28;20228;-85
2023/07/23 11:40:57;;;;;;;5.85;3.40;;;26.40;67.60;;;;;;5055567;28;20749;-88
2023/07/23 11:43:46;;;;;;;6.07;3.30;;;26.20;67.80;;;;;;5083896;28;20230;-88
2023/07/23 11:46:37;;;;;;;5.32;3.40;;;26.20;68.00;;;;;;5062467;28;20215;-87
2023/07/23 11:49:26;;;;;;;5.97;3.65;;;26.20;68.00;;;;;;5080494;28;20219;-87
2023/07/23 11:52:23;;;;;;;4.45;3.97;;;26.20;68.50;;;;;;5069344;28;20239;-86
2023/07/23 11:55:22;;;;;;;6.50;3.63;;;26.20;70.20;;;;;;5089657;28;20760;-86
2023/07/23 11:58:18;;;;;;;5.82;3.00;;;26.00;69.50;;;;;;5077455;28;20694;-87
2023/07/23 12:01:08;;;;;;;7.35;3.55;;;26.00;69.90;;;;;;5086715;28;20219;-87
2023/07/23 12:04:03;;;;;;;4.32;3.30;;;25.90;70.20;;;;;;5084652;28;20279;-87
2023/07/23 12:06:52;;;;;;;5.30;3.08;;;25.90;71.40;;;;;;5070836;28;20314;-87
2023/07/23 12:09:42;;;;;;;5.15;3.70;;;25.90;70.60;;;;;;5085728;28;20227;-87
2023/07/23 12:12:33;;;;;;;5.80;3.58;;;25.90;73.10;;;;;;5082023;28;20227;-87
2023/07/23 12:15:22;;;;;;;5.22;3.40;;;25.80;76.50;;;;;;5083238;28;20220;-86
2023/07/23 12:18:11;;;;;;;6.68;3.70;;;26.00;73.30;;;;;;5078149;28;20224;-88
2023/07/23 12:21:00;;;;;;;7.97;3.75;;;26.10;74.00;;;;;;5085263;28;20260;-87
2023/07/23 12:23:50;;;;;;;6.15;3.65;;;26.10;81.00;;;;;;5088935;28;20219;-86
2023/07/23 12:26:40;;;;;;;7.22;3.88;;;26.10;82.30;;;;;;5085557;28;20243;-88
2023/07/23 12:29:29;;;;;;;6.95;3.53;;;26.20;77.80;;;;;;5081504;28;20231;-87
2023/07/23 12:32:20;;;;;;;8.30;3.72;;;26.30;77.10;;;;;;5069336;28;20223;-86
2023/07/23 12:35:09;;;;;;;5.70;3.72;;;26.50;76.70;;;;;;5073510;28;20985;-87
2023/07/23 12:37:58;;;;;;;5.75;3.80;;;26.60;75.20;;;;;;5084657;28;20220;-88
2023/07/23 12:40:50;;;;;;;5.43;3.65;;;26.70;75.80;;;;;;5072249;28;20215;-87
2023/07/23 12:43:40;;;;;;;5.40;3.70;;;26.70;74.20;;;;;;5067461;28;20315;-88
2023/07/23 12:46:29;;;;;;;5.40;3.60;;;26.60;74.50;;;;;;5084779;28;20916;-87
2023/07/23 12:49:19;;;;;;;5.55;3.60;;;26.60;75.20;;;;;;5069965;28;20234;-88
2023/07/23 12:52:08;;;;;;;5.22;3.75;;;26.50;73.70;;;;;;5086804;28;20319;-88
2023/07/23 12:54:57;;;;;;;4.93;3.67;;;26.60;73.60;;;;;;5074790;28;20223;-87
2023/07/23 12:57:45;;;;;;;9.25;4.00;;;27.10;73.40;;;;;;5094769;28;20215;-86
2023/07/23 13:00:39;;;;;;;6.00;3.70;;;27.10;72.70;;;;;;5094102;28;20216;-87
2023/07/23 13:03:29;;;;;;;4.10;3.58;;;27.30;72.80;;;;;;5097476;28;20211;-86
2023/07/23 13:06:18;;;;;;;4.07;3.67;;;27.70;72.50;;;;;;5084747;28;20231;-88
2023/07/23 13:09:07;;;;;;;5.28;3.92;;;27.50;71.90;;;;;;5065638;28;20327;-88
2023/07/23 13:11:58;;;;;;;4.32;3.92;;;27.70;72.30;;;;;;5066223;28;20219;-86
2023/07/23 13:14:47;;;;;;;4.20;3.70;;;27.60;73.90;;;;;;5081585;28;20587;-88
2023/07/23 13:17:37;;;;;;;5.25;4.00;;;27.60;73.90;;;;;;5095862;28;20285;-88
2023/07/23 13:20:26;;;;;;;7.47;3.85;;;27.60;74.20;;;;;;5080340;28;20302;-87
2023/07/23 13:23:14;;;;;;;4.90;3.90;;;27.50;71.50;;;;;;5076091;28;20741;-88
2023/07/23 13:26:04;;;;;;;4.10;3.70;;;27.50;71.20;;;;;;5078802;28;20231;-87
2023/07/23 13:28:52;;;;;;;5.25;3.90;;;27.40;71.70;;;;;;5076114;28;20280;-86
2023/07/23 13:31:41;;;;;;;7.63;4.78;;;27.50;71.40;;;;;;5086142;28;20251;-86
2023/07/23 13:34:32;;;;;;;13.57;12.32;;;27.70;72.60;;;;;;5077978;28;20276;-88
2023/07/23 13:37:21;;;;;;;5.75;4.68;;;27.90;72.20;;;;;;5079308;28;20226;-88
2023/07/23 13:40:11;;;;;;;5.55;3.63;;;28.10;70.00;;;;;;5083311;28;20219;-89
2023/07/23 13:43:01;;;;;;;7.28;4.18;;;28.00;69.20;;;;;;5065008;28;20245;-88
2023/07/23 13:45:50;;;;;;;5.70;4.15;;;27.90;71.20;;;;;;5081673;28;20231;-87
2023/07/23 13:48:38;;;;;;;7.20;4.10;;;27.80;71.20;;;;;;5076779;28;20307;-87
2023/07/23 13:51:28;;;;;;;6.18;4.28;;;27.60;72.40;;;;;;5073677;28;20302;-88
2023/07/23 13:54:17;;;;;;;5.47;4.20;;;27.60;70.50;;;;;;5071875;28;20864;-87
2023/07/23 13:57:07;;;;;;;5.78;4.68;;;27.40;70.40;;;;;;5076233;28;20232;-87
2023/07/23 13:59:57;;;;;;;11.05;9.18;;;27.30;72.60;;;;;;5080210;28;20234;-88
2023/07/23 14:02:46;;;;;;;8.82;6.00;;;27.20;72.70;;;;;;5083155;28;20590;-89
2023/07/23 14:05:36;;;;;;;9.45;5.45;;;27.20;72.40;;;;;;5083147;28;20246;-87
2023/07/23 14:08:27;;;;;;;5.65;4.43;;;27.10;73.20;;;;;;5084926;28;20272;-88
2023/07/23 14:11:15;;;;;;;4.10;3.67;;;27.20;72.30;;;;;;5073903;28;20231;-88
2023/07/23 14:14:04;;;;;;;4.57;3.85;;;27.40;73.50;;;;;;5071126;28;20661;-89
2023/07/23 14:16:53;;;;;;;6.78;4.03;;;27.60;71.60;;;;;;5069765;28;20215;-88
2023/07/23 14:19:42;;;;;;;5.70;4.00;;;27.60;72.70;;;;;;5079200;28;20224;-88
2023/07/23 14:22:31;;;;;;;7.90;5.07;;;27.60;73.30;;;;;;5077106;28;20216;-89
2023/07/23 14:25:21;;;;;;;6.75;5.93;;;27.60;70.60;;;;;;5073324;28;20536;-88
2023/07/23 14:28:10;;;;;;;9.50;5.60;;;27.60;71.40;;;;;;5063240;28;20661;-88
2023/07/23 14:30:58;;;;;;;5.45;3.50;;;27.60;72.40;;;;;;5071828;28;20273;-88
2023/07/23 14:33:51;;;;;;;6.63;3.85;;;27.50;69.40;;;;;;5082360;28;20223;-88
2023/07/23 14:36:40;;;;;;;4.47;3.90;;;27.40;70.50;;;;;;5069907;28;20294;-86
2023/07/23 14:39:29;;;;;;;5.15;3.75;;;27.30;70.70;;;;;;5081256;28;20699;-88
2023/07/23 14:42:23;;;;;;;9.80;3.55;;;27.30;70.00;;;;;;5077803;28;20231;-88
2023/07/23 14:45:14;;;;;;;5.57;4.45;;;27.40;69.80;;;;;;5082965;28;20247;-88